Time;durP1;ratioP1;P1;durP2;ratioP2;P2;SDS_P1;SDS_P2;PMS_P1;PMS_P2;Temp;Humidity;BMP_temperature;BMP_pressure;BME280_temperature;BME280_humidity;BME280_pressure;Samples;Min_cycle;Max_cycle;Signal;HPM_P1;HPM_P2
2022/06/12 00:00:27;;;;;;;11.02;2.40;;;12.30;99.90;;;;;;4991997;28;20085;-88
2022/06/12 00:02:54;;;;;;;8.93;2.47;;;12.30;99.90;;;;;;4990325;28;20052;-87
2022/06/12 00:05:23;;;;;;;11.95;2.17;;;12.30;99.90;;;;;;4990874;28;20084;-87
2022/06/12 00:07:49;;;;;;;9.05;1.92;;;12.20;99.90;;;;;;4991764;28;20042;-87
2022/06/12 00:10:15;;;;;;;11.93;2.63;;;12.10;99.90;;;;;;4990827;28;20046;-87
2022/06/12 00:12:43;;;;;;;13.00;2.17;;;12.10;99.90;;;;;;4992196;28;20469;-88
2022/06/12 00:15:12;;;;;;;10.82;2.72;;;12.00;99.90;;;;;;5003458;28;20057;-87
2022/06/12 00:17:38;;;;;;;15.30;3.20;;;12.00;99.90;;;;;;5010971;28;20120;-87
2022/06/12 00:20:05;;;;;;;12.45;2.67;;;12.10;99.90;;;;;;5010030;28;20056;-87
2022/06/12 00:22:31;;;;;;;11.90;3.05;;;12.10;99.90;;;;;;5011081;28;20054;-88
2022/06/12 00:24:57;;;;;;;11.80;2.50;;;12.10;99.90;;;;;;5010478;28;20041;-88
2022/06/12 00:27:22;;;;;;;12.98;2.45;;;12.10;99.90;;;;;;5011209;28;20466;-87
2022/06/12 00:29:50;;;;;;;13.02;2.40;;;12.10;99.90;;;;;;5026456;28;20102;-87
2022/06/12 00:32:17;;;;;;;11.32;2.78;;;12.00;99.90;;;;;;5010944;28;20042;-87
2022/06/12 00:34:49;;;;;;;15.00;2.80;;;12.00;99.90;;;;;;5027231;28;20072;-88
2022/06/12 00:37:18;;;;;;;11.93;2.73;;;11.90;99.90;;;;;;5010405;28;20053;-87
2022/06/12 00:39:45;;;;;;;11.38;2.83;;;11.80;99.90;;;;;;5011330;28;20060;-87
2022/06/12 00:42:36;;;;;;;12.18;2.60;;;11.80;99.90;;;;;;5011019;28;20611;-87
2022/06/12 00:45:32;;;;;;;8.80;2.67;;;11.80;99.90;;;;;;5010454;28;20073;-88
2022/06/12 00:48:00;;;;;;;11.25;2.17;;;11.70;99.90;;;;;;5027392;28;20049;-88
2022/06/12 00:50:26;;;;;;;12.43;2.75;;;11.70;99.90;;;;;;5007515;28;20069;-87
2022/06/12 00:52:54;;;;;;;10.63;2.72;;;11.70;99.90;;;;;;5006754;28;20046;-87
2022/06/12 00:55:41;;;;;;;11.90;2.70;;;11.70;99.90;;;;;;5007601;28;20539;-88
2022/06/12 00:58:11;;;;;;;15.15;2.50;;;11.70;99.90;;;;;;5007094;28;20041;-88
2022/06/12 01:00:38;;;;;;;14.35;2.75;;;11.70;99.90;;;;;;5007992;28;20494;-88
2022/06/12 01:03:05;;;;;;;10.77;2.97;;;11.60;99.90;;;;;;5007251;28;20085;-88
2022/06/12 01:08:17;;;;;;;13.73;2.70;;;11.60;99.90;;;;;;5007131;28;20042;-87
2022/06/12 01:10:46;;;;;;;10.07;2.50;;;11.60;99.90;;;;;;5007666;28;20273;-87
2022/06/12 01:13:18;;;;;;;9.80;2.13;;;11.60;99.90;;;;;;5006681;28;20037;-87
2022/06/12 01:15:49;;;;;;;14.85;2.65;;;11.60;99.90;;;;;;5008826;28;20528;-87
2022/06/12 01:18:20;;;;;;;13.00;2.70;;;11.50;99.90;;;;;;5027927;28;20057;-88
2022/06/12 01:21:05;;;;;;;8.40;2.10;;;11.50;99.90;;;;;;5009462;28;20584;-87
2022/06/12 01:24:08;;;;;;;13.57;2.85;;;11.60;99.90;;;;;;5011107;28;20048;-87
2022/06/12 01:26:35;;;;;;;8.60;2.40;;;11.10;99.90;;;;;;5010676;28;20053;-87
2022/06/12 01:29:08;;;;;;;13.07;2.67;;;11.70;99.90;;;;;;5010689;28;20057;-88
2022/06/12 01:31:44;;;;;;;13.35;2.92;;;11.80;99.90;;;;;;5010563;28;20049;-88
2022/06/12 01:34:33;;;;;;;9.50;3.03;;;11.90;99.90;;;;;;5009618;28;20513;-88
2022/06/12 01:37:02;;;;;;;16.10;2.83;;;11.90;99.90;;;;;;5026517;28;20049;-87
2022/06/12 01:39:40;;;;;;;11.77;2.60;;;12.00;99.90;;;;;;5010602;28;20440;-87
2022/06/12 01:42:25;;;;;;;12.73;2.65;;;12.00;99.90;;;;;;5009364;28;20064;-87
2022/06/12 01:45:11;;;;;;;10.75;2.85;;;12.00;99.90;;;;;;5010383;28;20050;-87
2022/06/12 01:47:51;;;;;;;15.18;2.72;;;11.90;99.90;;;;;;5010261;28;20140;-87
2022/06/12 01:50:24;;;;;;;9.70;2.78;;;12.00;99.90;;;;;;5009839;28;20103;-87
2022/06/12 01:52:57;;;;;;;9.48;2.92;;;12.00;99.90;;;;;;5010081;28;20049;-87
2022/06/12 01:55:30;;;;;;;9.45;2.35;;;12.00;99.90;;;;;;5009547;28;20085;-87
2022/06/12 01:58:08;;;;;;;10.70;3.30;;;11.90;99.90;;;;;;5010253;28;20141;-88
2022/06/12 02:00:40;;;;;;;9.77;2.17;;;11.90;99.90;;;;;;5009893;28;20053;-87
2022/06/12 02:03:15;;;;;;;11.18;2.50;;;11.80;99.90;;;;;;5008983;28;20109;-87
2022/06/12 02:05:50;;;;;;;9.70;2.33;;;11.70;99.90;;;;;;5009588;28;20092;-87
2022/06/12 02:08:22;;;;;;;10.32;2.53;;;11.60;99.90;;;;;;5009466;28;20100;-87
2022/06/12 02:10:54;;;;;;;10.63;2.85;;;11.60;99.90;;;;;;5009645;28;20041;-87
2022/06/12 02:13:25;;;;;;;12.43;2.60;;;11.60;99.90;;;;;;5010087;28;20050;-87
2022/06/12 02:16:03;;;;;;;10.73;2.53;;;11.60;99.90;;;;;;5009074;28;20050;-87
2022/06/12 02:18:38;;;;;;;11.82;2.45;;;11.60;99.90;;;;;;5009579;28;20053;-87
2022/06/12 02:21:07;;;;;;;14.05;2.88;;;11.70;99.90;;;;;;5008256;28;20136;-86
2022/06/12 02:23:41;;;;;;;9.90;2.38;;;11.70;99.90;;;;;;5009298;28;20042;-87
2022/06/12 02:26:13;;;;;;;9.63;2.55;;;11.60;99.90;;;;;;5008471;28;20054;-87
2022/06/12 02:28:47;;;;;;;11.30;2.72;;;11.60;99.90;;;;;;5010231;28;20053;-87
2022/06/12 02:31:17;;;;;;;13.52;2.65;;;11.60;99.90;;;;;;5008789;28;20045;-87
2022/06/12 02:33:48;;;;;;;11.80;2.80;;;11.60;99.90;;;;;;5009074;28;20038;-86
2022/06/12 02:36:20;;;;;;;12.05;2.45;;;11.60;99.90;;;;;;5008059;28;20064;-87
2022/06/12 02:38:56;;;;;;;16.73;2.90;;;11.70;99.90;;;;;;5009845;28;20053;-87
2022/06/12 02:41:26;;;;;;;16.20;2.70;;;11.70;99.90;;;;;;5009705;28;20045;-87
2022/06/12 02:43:58;;;;;;;16.77;3.15;;;11.70;99.90;;;;;;5008731;28;20514;-87
2022/06/12 02:46:29;;;;;;;16.00;3.17;;;11.80;99.90;;;;;;5008867;28;20065;-87
2022/06/12 02:48:55;;;;;;;13.15;2.80;;;11.80;99.90;;;;;;5009380;28;20089;-87
2022/06/12 02:51:41;;;;;;;13.85;3.33;;;11.80;99.90;;;;;;5007729;28;20084;-87
2022/06/12 02:54:12;;;;;;;15.52;2.97;;;11.90;99.90;;;;;;5009600;28;20077;-87
2022/06/12 02:56:58;;;;;;;11.35;3.08;;;11.90;99.90;;;;;;5009539;28;20485;-87
2022/06/12 02:59:46;;;;;;;14.18;2.72;;;11.90;99.90;;;;;;5008308;28;20085;-87
2022/06/12 03:02:38;;;;;;;14.35;3.33;;;12.00;99.90;;;;;;5009228;28;20435;-87
2022/06/12 03:05:13;;;;;;;13.65;2.70;;;12.00;99.90;;;;;;5007464;28;20107;-86
2022/06/12 03:07:39;;;;;;;12.18;3.30;;;12.00;99.90;;;;;;5009381;28;20092;-87
2022/06/12 03:10:11;;;;;;;15.68;2.85;;;12.00;99.90;;;;;;5008683;28;20081;-87
2022/06/12 03:12:37;;;;;;;14.75;3.28;;;12.00;99.90;;;;;;5008338;28;20038;-87
2022/06/12 03:15:11;;;;;;;16.80;3.30;;;12.00;99.90;;;;;;5008849;28;20100;-87
2022/06/12 03:17:37;;;;;;;13.98;3.13;;;12.00;99.90;;;;;;5008999;28;20088;-87
2022/06/12 03:20:03;;;;;;;17.58;3.22;;;12.00;99.90;;;;;;5006415;28;20065;-86
2022/06/12 03:22:41;;;;;;;15.20;3.80;;;12.00;99.90;;;;;;5009081;28;20054;-86
2022/06/12 03:25:20;;;;;;;12.18;3.13;;;12.00;99.90;;;;;;4991714;28;20064;-87
2022/06/12 03:27:58;;;;;;;12.70;3.03;;;12.00;99.90;;;;;;5008351;28;20044;-87
2022/06/12 03:30:33;;;;;;;14.73;3.08;;;12.00;99.90;;;;;;5008641;28;20057;-87
2022/06/12 03:33:12;;;;;;;20.35;3.85;;;12.00;99.90;;;;;;5008216;28;20460;-87
2022/06/12 03:35:55;;;;;;;18.02;3.42;;;12.00;99.90;;;;;;5008115;28;20045;-87
2022/06/12 03:38:39;;;;;;;;;;;12.10;99.90;;;;;;5008276;28;20046;-87
2022/06/12 03:41:30;;;;;;;15.90;2.70;;;12.10;99.90;;;;;;5023450;28;19932;-87
2022/06/12 03:44:14;;;;;;;15.13;2.50;;;12.00;99.90;;;;;;5027425;28;20106;-86
2022/06/12 03:46:42;;;;;;;;;;;12.10;99.90;;;;;;5027492;28;20053;-87
2022/06/12 03:49:25;;;;;;;14.43;3.10;;;12.10;99.90;;;;;;5026909;28;20358;-86
2022/06/12 03:51:53;;;;;;;13.07;3.08;;;12.10;99.90;;;;;;5028091;28;20044;-87
2022/06/12 03:54:39;;;;;;;9.57;2.53;;;12.10;99.90;;;;;;5026650;28;20081;-87
2022/06/12 04:00:15;;;;;;;17.33;2.88;;;12.10;99.90;;;;;;5027581;28;20390;-87
2022/06/12 04:02:52;;;;;;;15.00;2.50;;;12.20;99.90;;;;;;5027254;28;20053;-87
2022/06/12 04:05:26;;;;;;;12.98;2.55;;;12.20;99.90;;;;;;5027092;28;20111;-87
2022/06/12 04:07:55;;;;;;;16.85;3.05;;;12.20;99.90;;;;;;5026390;28;20121;-86
2022/06/12 04:10:25;;;;;;;13.00;2.88;;;12.20;99.90;;;;;;5027712;28;20053;-87
2022/06/12 04:12:51;;;;;;;14.98;3.25;;;12.20;99.90;;;;;;5027148;28;20037;-87
2022/06/12 04:15:24;;;;;;;12.80;2.70;;;12.20;99.90;;;;;;5026823;28;20041;-87
2022/06/12 04:17:51;;;;;;;15.68;3.53;;;12.30;99.90;;;;;;5027411;28;20164;-87
2022/06/12 04:20:23;;;;;;;12.77;2.58;;;12.40;99.90;;;;;;5026274;28;20084;-87
2022/06/12 04:22:59;;;;;;;18.83;2.85;;;12.40;99.90;;;;;;5026901;28;20050;-87
2022/06/12 04:25:30;;;;;;;13.93;3.13;;;12.40;99.90;;;;;;5027083;28;20132;-87
2022/06/12 04:27:56;;;;;;;11.90;2.70;;;12.50;99.90;;;;;;5011259;28;20045;-87
2022/06/12 04:30:26;;;;;;;14.63;3.05;;;12.60;99.90;;;;;;5010698;28;20056;-87
2022/06/12 04:33:23;;;;;;;14.20;3.03;;;12.70;99.90;;;;;;4991438;28;20081;-87
2022/06/12 04:35:56;;;;;;;14.95;2.70;;;12.80;99.90;;;;;;4991418;28;20449;-87
2022/06/12 04:38:23;;;;;;;13.57;3.05;;;13.00;99.90;;;;;;4991433;28;20046;-87
2022/06/12 04:40:52;;;;;;;17.05;2.58;;;13.10;99.90;;;;;;4990885;28;20378;-87
2022/06/12 04:43:18;;;;;;;18.48;2.63;;;13.20;99.90;;;;;;4990479;28;20493;-87
2022/06/12 04:45:45;;;;;;;11.50;2.42;;;13.30;99.90;;;;;;4990906;28;20220;-86
2022/06/12 04:48:19;;;;;;;15.13;2.90;;;13.50;99.90;;;;;;4991202;28;20042;-87
2022/06/12 04:50:46;;;;;;;14.25;3.00;;;13.60;99.90;;;;;;4992798;28;20046;-87
2022/06/12 04:53:11;;;;;;;16.33;3.38;;;13.70;99.90;;;;;;4994814;28;20046;-87
2022/06/12 04:55:37;;;;;;;11.13;2.53;;;13.80;99.90;;;;;;4994430;28;20053;-87
2022/06/12 04:58:05;;;;;;;12.95;2.72;;;13.90;99.90;;;;;;4993742;28;20449;-87
2022/06/12 05:00:32;;;;;;;18.80;2.95;;;13.90;99.90;;;;;;4994250;28;20050;-86
2022/06/12 05:02:58;;;;;;;11.23;2.78;;;13.90;99.90;;;;;;4995026;28;20042;-87
2022/06/12 05:05:25;;;;;;;10.43;2.35;;;13.90;99.90;;;;;;5008806;28;20060;-87
2022/06/12 05:07:51;;;;;;;16.70;2.75;;;13.90;99.90;;;;;;5027578;28;20069;-86
2022/06/12 05:10:18;;;;;;;15.18;2.92;;;13.90;99.90;;;;;;5010629;28;20104;-87
2022/06/12 05:12:45;;;;;;;17.63;2.70;;;13.90;99.90;;;;;;5009930;28;20042;-87
2022/06/12 05:15:12;;;;;;;11.35;2.75;;;13.90;99.90;;;;;;5010466;28;20097;-86
2022/06/12 05:17:41;;;;;;;16.90;2.70;;;14.00;99.90;;;;;;5010610;28;20054;-87
2022/06/12 05:20:13;;;;;;;14.82;3.08;;;14.00;99.90;;;;;;5006721;28;20042;-86
2022/06/12 05:22:40;;;;;;;14.23;3.28;;;14.10;99.90;;;;;;5026909;28;20074;-87
2022/06/12 05:25:06;;;;;;;14.95;2.58;;;14.10;99.90;;;;;;5025658;28;20081;-86
2022/06/12 05:27:32;;;;;;;17.77;2.60;;;14.20;99.90;;;;;;5010076;28;20041;-86
2022/06/12 05:29:58;;;;;;;19.08;3.20;;;14.30;99.90;;;;;;5009928;28;20042;-86
2022/06/12 05:32:29;;;;;;;16.50;3.33;;;14.40;99.90;;;;;;5009487;28;20471;-86
2022/06/12 05:34:55;;;;;;;17.63;3.03;;;14.60;99.90;;;;;;5009119;28;20505;-86
2022/06/12 05:37:21;;;;;;;15.15;2.80;;;14.60;99.90;;;;;;5009879;28;20037;-86
2022/06/12 05:39:47;;;;;;;20.73;3.10;;;14.80;99.90;;;;;;5009391;28;20034;-86
2022/06/12 05:42:13;;;;;;;20.83;3.63;;;14.90;99.90;;;;;;5027198;28;20436;-86
2022/06/12 05:44:40;;;;;;;19.63;3.90;;;15.00;99.90;;;;;;5009956;28;20402;-86
2022/06/12 05:47:06;;;;;;;17.48;3.40;;;15.10;99.90;;;;;;5009099;28;20042;-86
2022/06/12 05:49:32;;;;;;;19.23;3.53;;;15.20;99.90;;;;;;5009375;28;20096;-86
2022/06/12 05:51:58;;;;;;;18.05;3.75;;;15.30;99.90;;;;;;5010030;28;20050;-86
2022/06/12 05:54:23;;;;;;;24.33;3.97;;;15.40;99.90;;;;;;5009372;28;20077;-86
2022/06/12 05:56:49;;;;;;;16.55;3.38;;;15.50;99.90;;;;;;5026551;28;20164;-86
2022/06/12 05:59:15;;;;;;;22.05;3.63;;;15.60;99.90;;;;;;5010323;28;20481;-86
2022/06/12 06:01:41;;;;;;;26.63;3.67;;;15.70;99.90;;;;;;5025287;28;20481;-86
2022/06/12 06:04:08;;;;;;;20.70;3.95;;;15.80;99.90;;;;;;5009554;28;20096;-86
2022/06/12 06:06:42;;;;;;;20.30;3.58;;;15.90;99.90;;;;;;5010226;28;20489;-86
2022/06/12 06:09:08;;;;;;;18.75;3.50;;;16.10;99.90;;;;;;5008790;28;20505;-86
2022/06/12 06:11:41;;;;;;;23.67;4.35;;;16.20;99.90;;;;;;5009666;28;20050;-86
2022/06/12 06:14:09;;;;;;;;;;;16.40;99.90;;;;;;5010076;28;20053;-86
2022/06/12 06:16:36;;;;;;;28.52;4.32;;;16.40;99.90;;;;;;5009758;28;19921;-86
2022/06/12 06:19:03;;;;;;;19.83;3.70;;;16.60;99.90;;;;;;5008900;28;20045;-86
2022/06/12 06:21:29;;;;;;;15.93;3.65;;;16.70;99.90;;;;;;5008700;28;20054;-86
2022/06/12 06:23:55;;;;;;;23.05;3.75;;;16.80;99.90;;;;;;5009929;28;20060;-86
2022/06/12 06:26:22;;;;;;;19.40;3.47;;;17.00;99.90;;;;;;5009462;28;20050;-87
2022/06/12 06:28:51;;;;;;;20.27;3.67;;;17.00;99.90;;;;;;5008639;28;20052;-87
2022/06/12 06:31:17;;;;;;;19.58;4.22;;;17.10;99.90;;;;;;5009364;28;20046;-86
2022/06/12 06:33:58;;;;;;;23.30;4.88;;;17.20;99.90;;;;;;5008834;28;20037;-85
2022/06/12 06:36:25;;;;;;;16.23;3.70;;;17.30;99.90;;;;;;5007914;28;20532;-86
2022/06/12 06:38:55;;;;;;;25.27;3.83;;;17.40;99.90;;;;;;5008828;28;20118;-86
2022/06/12 06:41:22;;;;;;;21.15;4.43;;;17.70;99.90;;;;;;5008665;28;20045;-87
2022/06/12 06:46:32;;;;;;;15.68;3.00;;;17.80;99.90;;;;;;5022783;28;20045;-87
2022/06/12 06:48:58;;;;;;;20.23;3.60;;;17.90;99.90;;;;;;5011476;28;20044;-88
2022/06/12 06:51:23;;;;;;;18.15;3.97;;;17.90;99.90;;;;;;5005652;28;20042;-83
2022/06/12 06:53:49;;;;;;;21.35;3.63;;;18.00;99.90;;;;;;5018781;28;20492;-83
2022/06/12 06:56:15;;;;;;;21.50;4.65;;;18.00;99.90;;;;;;5025367;28;20472;-83
2022/06/12 06:58:41;;;;;;;22.05;3.80;;;18.00;99.90;;;;;;5024653;28;20441;-85
2022/06/12 07:01:07;;;;;;;27.35;4.22;;;18.10;99.90;;;;;;5009443;28;20076;-85
2022/06/12 07:03:33;;;;;;;29.38;5.03;;;18.10;99.90;;;;;;5008876;28;20077;-84
2022/06/12 07:05:59;;;;;;;20.33;3.72;;;18.20;99.90;;;;;;5004131;28;20041;-85
2022/06/12 07:08:26;;;;;;;19.60;4.13;;;18.40;99.90;;;;;;5009504;28;20117;-84
2022/06/12 07:10:53;;;;;;;21.48;4.68;;;18.60;99.90;;;;;;5020194;28;20087;-84
2022/06/12 07:13:19;;;;;;;20.45;3.92;;;18.60;99.90;;;;;;5002473;28;20064;-83
2022/06/12 07:15:46;;;;;;;20.17;5.20;;;18.60;99.90;;;;;;5010783;28;20492;-84
2022/06/12 07:18:13;;;;;;;19.75;4.20;;;18.60;99.90;;;;;;5025651;28;20053;-83
2022/06/12 07:20:46;;;;;;;21.35;4.10;;;18.70;99.90;;;;;;5010187;28;20097;-83
2022/06/12 07:23:14;;;;;;;21.05;4.82;;;18.70;99.90;;;;;;5025973;28;20564;-83
2022/06/12 07:25:45;;;;;;;20.02;4.18;;;18.80;99.90;;;;;;5026526;28;20052;-82
2022/06/12 07:28:11;;;;;;;23.30;4.20;;;18.80;99.90;;;;;;5025714;28;20453;-82
2022/06/12 07:30:38;;;;;;;19.17;3.80;;;18.90;99.90;;;;;;5027335;28;20045;-82
2022/06/12 07:33:06;;;;;;;18.05;4.00;;;19.00;99.90;;;;;;5008253;28;20033;-82
2022/06/12 07:35:33;;;;;;;16.85;4.07;;;19.00;99.90;;;;;;5026373;28;20106;-83
2022/06/12 07:40:46;;;;;;;21.20;4.53;;;19.10;99.90;;;;;;5146784;27;20321;-81
2022/06/12 07:43:12;;;;;;;20.45;3.80;;;19.20;99.90;;;;;;5088222;28;20444;-83
2022/06/12 07:45:40;;;;;;;16.85;3.22;;;19.30;99.90;;;;;;5103469;28;20043;-82
2022/06/12 07:48:07;;;;;;;21.60;4.07;;;19.40;99.90;;;;;;5091338;28;20044;-83
2022/06/12 07:50:33;;;;;;;18.33;4.22;;;19.60;99.90;;;;;;5079250;28;20032;-83
2022/06/12 07:52:59;;;;;;;18.73;4.22;;;19.70;99.90;;;;;;5083436;28;20071;-82
2022/06/12 07:55:26;;;;;;;16.38;3.47;;;19.90;99.90;;;;;;5104682;28;20043;-82
2022/06/12 07:57:53;;;;;;;22.23;3.65;;;20.10;99.90;;;;;;5084765;28;20042;-83
2022/06/12 08:00:19;;;;;;;17.38;3.47;;;20.10;99.90;;;;;;5094454;28;20397;-82
2022/06/12 08:02:46;;;;;;;16.50;3.17;;;20.20;99.90;;;;;;5090220;28;20047;-82
2022/06/12 08:05:14;;;;;;;18.58;3.60;;;20.00;99.90;;;;;;5083906;28;20486;-82
2022/06/12 08:07:40;;;;;;;23.05;3.88;;;20.00;99.90;;;;;;5089756;28;20075;-82
2022/06/12 08:10:07;;;;;;;19.05;3.72;;;20.00;99.90;;;;;;5103035;28;20087;-82
2022/06/12 08:12:37;;;;;;;16.20;2.85;;;20.00;99.90;;;;;;5103565;28;20047;-82
2022/06/12 08:15:05;;;;;;;17.70;3.38;;;20.00;99.90;;;;;;5082602;28;20052;-82
2022/06/12 08:17:31;;;;;;;20.40;4.15;;;20.00;99.90;;;;;;5093894;28;20384;-84
2022/06/12 08:22:41;;;;;;;17.60;3.15;;;20.10;99.90;;;;;;5093079;28;20047;-86
2022/06/12 08:25:07;;;;;;;18.05;2.85;;;20.30;99.90;;;;;;5087943;28;20448;-88
2022/06/12 08:27:36;;;;;;;17.58;2.90;;;20.50;99.90;;;;;;5100589;28;20082;-85
2022/06/12 08:30:05;;;;;;;11.32;2.70;;;20.50;99.90;;;;;;5074659;28;20123;-85
2022/06/12 08:32:32;;;;;;;18.45;2.95;;;20.60;99.90;;;;;;5084116;28;20055;-85
2022/06/12 08:35:04;;;;;;;16.73;2.83;;;20.70;99.90;;;;;;5083429;28;20090;-87
2022/06/12 08:37:41;;;;;;;18.50;3.88;;;20.60;99.90;;;;;;5078739;28;20051;-87
2022/06/12 08:40:32;;;;;;;15.55;3.03;;;20.60;99.90;;;;;;5084702;28;20590;-85
2022/06/12 08:43:41;;;;;;;18.15;3.35;;;20.60;99.90;;;;;;5098212;28;20056;-85
2022/06/12 08:46:18;;;;;;;18.95;3.10;;;20.90;99.90;;;;;;5089309;28;20044;-87
2022/06/12 08:49:43;;;;;;;14.60;3.15;;;21.00;99.90;;;;;;5088135;28;20047;-88
2022/06/12 08:55:55;;;;;;;16.83;2.97;;;21.00;99.90;;;;;;5034552;28;20048;-86
2022/06/12 08:59:05;;;;;;;15.40;3.28;;;20.90;99.90;;;;;;5025375;28;20067;-88
2022/06/12 09:04:48;;;;;;;15.48;3.13;;;20.90;99.90;;;;;;5030866;28;20123;-88
2022/06/12 09:09:54;;;;;;;15.02;3.05;;;21.10;99.90;;;;;;5002129;28;20049;-87
2022/06/12 09:12:37;;;;;;;18.15;3.15;;;20.90;99.90;;;;;;4968367;28;20398;-87
2022/06/12 09:15:21;;;;;;;17.40;4.13;;;20.80;99.90;;;;;;4959094;28;20050;-88
2022/06/12 09:17:59;;;;;;;10.48;2.72;;;20.60;99.90;;;;;;4981594;28;20182;-87
2022/06/12 09:20:49;;;;;;;21.17;3.28;;;20.80;99.90;;;;;;4981830;28;20065;-87
2022/06/12 09:23:37;;;;;;;13.90;2.53;;;21.10;99.90;;;;;;4985241;28;20129;-88
2022/06/12 09:26:41;;;;;;;13.80;3.47;;;21.60;99.90;;;;;;4953744;28;20065;-87
2022/06/12 09:29:30;;;;;;;15.73;3.45;;;22.00;99.90;;;;;;4989654;28;20394;-87
2022/06/12 09:32:45;;;;;;;17.15;3.45;;;22.10;99.90;;;;;;4967066;28;20489;-87
2022/06/12 09:35:33;;;;;;;16.35;3.38;;;22.10;99.90;;;;;;4980953;28;20487;-87
2022/06/12 09:38:18;;;;;;;17.75;2.83;;;22.10;99.90;;;;;;4968555;28;20569;-87
2022/06/12 09:41:00;;;;;;;17.23;3.60;;;22.20;99.90;;;;;;4972425;28;20100;-87
2022/06/12 09:43:36;;;;;;;15.70;3.00;;;21.80;99.90;;;;;;4965592;28;20081;-87
2022/06/12 09:46:07;;;;;;;22.73;3.22;;;21.50;99.90;;;;;;4968334;28;20058;-88
2022/06/12 09:48:47;;;;;;;16.43;3.27;;;21.10;99.90;;;;;;4963299;28;20136;-87
2022/06/12 09:51:40;;;;;;;18.75;2.97;;;21.00;99.90;;;;;;4971789;28;20050;-89
2022/06/12 09:54:17;;;;;;;;;;;21.10;99.90;;;;;;4964819;28;20491;-88
2022/06/12 09:56:52;;;;;;;14.98;3.38;;;21.40;99.90;;;;;;4970992;28;19922;-88
2022/06/12 09:59:40;;;;;;;11.85;2.83;;;21.70;99.90;;;;;;4973905;28;20048;-88
2022/06/12 10:02:18;;;;;;;8.25;2.33;;;22.00;99.90;;;;;;4972020;28;20441;-88
2022/06/12 10:04:56;;;;;;;12.95;2.42;;;22.10;99.90;;;;;;4973115;28;20053;-88
2022/06/12 10:07:30;;;;;;;9.00;2.45;;;22.30;99.90;;;;;;4964666;28;20038;-87
2022/06/12 10:10:02;;;;;;;11.00;2.63;;;22.00;99.90;;;;;;4987861;28;20063;-85
2022/06/12 10:12:36;;;;;;;11.10;2.20;;;21.60;99.90;;;;;;4958775;28;20066;-87
2022/06/12 10:15:19;;;;;;;10.65;1.90;;;21.40;99.90;;;;;;4957011;28;20078;-87
2022/06/12 10:17:53;;;;;;;8.00;2.00;;;21.50;99.90;;;;;;4983058;28;20058;-87
2022/06/12 10:20:29;;;;;;;11.68;1.55;;;21.70;99.90;;;;;;4974952;28;20107;-88
2022/06/12 10:22:56;;;;;;;9.95;2.15;;;21.90;99.90;;;;;;4978865;28;20045;-88
2022/06/12 10:25:33;;;;;;;11.43;1.35;;;22.10;99.90;;;;;;4961494;28;20289;-87
2022/06/12 10:28:03;;;;;;;7.88;1.50;;;22.20;99.90;;;;;;4968799;28;20046;-88
2022/06/12 10:30:40;;;;;;;9.85;1.85;;;22.40;99.90;;;;;;4950476;28;20403;-87
2022/06/12 10:33:19;;;;;;;9.77;1.42;;;22.40;99.90;;;;;;4990413;28;20046;-88
2022/06/12 10:35:54;;;;;;;5.40;1.38;;;22.30;99.90;;;;;;4942972;28;20046;-89
2022/06/12 10:38:21;;;;;;;6.40;1.45;;;22.10;99.90;;;;;;4971567;28;20646;-88
2022/06/12 10:40:52;;;;;;;8.63;1.77;;;22.10;99.90;;;;;;4977348;28;20129;-89
2022/06/12 10:43:26;;;;;;;8.48;1.50;;;22.10;99.90;;;;;;4974492;28;20039;-88
2022/06/12 10:46:00;;;;;;;6.45;1.77;;;22.30;99.90;;;;;;4965770;28;20042;-88
2022/06/12 10:48:30;;;;;;;4.18;0.98;;;22.40;99.90;;;;;;4965924;28;20045;-88
2022/06/12 10:51:00;;;;;;;7.13;1.20;;;22.60;99.90;;;;;;4959311;28;20054;-88
2022/06/12 10:53:28;;;;;;;7.57;1.27;;;22.70;99.90;;;;;;4977963;28;20046;-89
2022/06/12 10:56:09;;;;;;;5.57;1.30;;;23.00;99.90;;;;;;4962500;28;20077;-88
2022/06/12 10:58:48;;;;;;;7.65;2.00;;;23.00;99.90;;;;;;4981450;28;20046;-89
2022/06/12 11:01:31;;;;;;;10.35;1.70;;;23.00;99.90;;;;;;4954618;28;20043;-89
2022/06/12 11:04:13;;;;;;;7.75;1.70;;;22.90;99.90;;;;;;4964598;28;20089;-88
2022/06/12 11:07:02;;;;;;;8.77;1.50;;;22.90;99.90;;;;;;4973910;28;20054;-91
2022/06/12 11:10:16;;;;;;;10.63;1.88;;;23.00;99.90;;;;;;4974895;28;20054;-89
2022/06/12 11:13:19;;;;;;;16.58;2.28;;;23.00;99.90;;;;;;4970029;28;20048;-90
2022/06/12 11:16:18;;;;;;;9.13;1.50;;;22.70;99.90;;;;;;4964905;28;20053;-91
2022/06/12 11:19:31;;;;;;;7.20;1.25;;;22.70;99.90;;;;;;4982895;28;20050;-90
2022/06/12 11:22:26;;;;;;;7.28;1.40;;;22.30;99.90;;;;;;4992081;28;20042;-96
2022/06/12 11:25:35;;;;;;;8.65;1.95;;;22.10;99.90;;;;;;4965466;28;20069;-91
2022/06/12 11:31:41;;;;;;;9.65;2.05;;;22.30;99.90;;;;;;5010405;23;20058;-90
2022/06/12 11:34:51;;;;;;;12.57;1.85;;;22.40;99.90;;;;;;4953056;28;20522;-89
2022/06/12 11:37:45;;;;;;;11.27;1.85;;;22.50;99.90;;;;;;4955432;28;20097;-90
2022/06/12 11:40:37;;;;;;;10.52;1.80;;;22.50;99.90;;;;;;4952964;28;20549;-90
2022/06/12 11:43:37;;;;;;;7.03;2.03;;;22.40;99.90;;;;;;4953268;28;20418;-90
2022/06/12 11:46:19;;;;;;;13.13;2.20;;;22.30;99.90;;;;;;4951935;28;20171;-90
2022/06/12 11:49:15;;;;;;;17.58;2.40;;;22.60;99.90;;;;;;4951761;28;20097;-91
2022/06/12 11:52:14;;;;;;;9.90;1.75;;;22.80;99.90;;;;;;4932173;28;20051;-90
2022/06/12 11:55:18;;;;;;;9.30;1.75;;;22.90;99.90;;;;;;4965167;28;20055;-90
2022/06/12 11:58:55;;;;;;;;;;;;;;;;;;;;;
2022/06/12 12:02:16;;;;;;;9.88;1.90;;;22.70;99.90;;;;;;4966162;28;20055;-90
2022/06/12 12:05:21;;;;;;;6.07;1.73;;;22.70;99.60;;;;;;4956396;28;20123;-90
2022/06/12 12:08:22;;;;;;;6.47;1.50;;;22.90;98.80;;;;;;4953343;28;20371;-90
2022/06/12 12:11:18;;;;;;;6.75;1.67;;;22.90;98.30;;;;;;4953781;28;20053;-91
2022/06/12 12:13:57;;;;;;;;;;;22.90;96.40;;;;;;4929402;29;20087;-91
2022/06/12 12:17:12;;;;;;;13.10;2.00;;;22.90;96.20;;;;;;4924500;28;20378;-90
2022/06/12 12:20:21;;;;;;;9.05;1.92;;;22.80;97.10;;;;;;4952936;28;20128;-90
2022/06/12 12:23:25;;;;;;;7.18;1.50;;;22.50;95.00;;;;;;4924503;28;20106;-91
2022/06/12 12:26:39;;;;;;;6.90;1.48;;;22.40;97.60;;;;;;4950930;28;20058;-90
2022/06/12 12:29:58;;;;;;;5.95;1.30;;;22.20;96.40;;;;;;4954061;28;20043;-90
2022/06/12 12:32:35;;;;;;;6.88;1.35;;;22.30;97.30;;;;;;4949296;28;20047;-90
2022/06/12 12:41:42;;;;;;;7.20;1.70;;;22.00;95.00;;;;;;4977786;28;20089;-90
2022/06/12 12:44:49;;;;;;;;;;;;;;;;;;;;;
2022/06/12 12:47:40;;;;;;;6.60;1.20;;;22.00;97.90;;;;;;4974368;28;20062;-90
2022/06/12 12:50:48;;;;;;;8.77;1.50;;;22.20;95.10;;;;;;4971434;28;20402;-91
2022/06/12 12:54:00;;;;;;;8.57;1.30;;;22.20;93.10;;;;;;4923332;28;20061;-90
2022/06/12 12:57:01;;;;;;;9.68;1.35;;;22.10;95.20;;;;;;4956720;28;20047;-90
2022/06/12 13:00:31;;;;;;;6.47;1.08;;;22.00;94.90;;;;;;4972302;28;20129;-91
2022/06/12 13:03:26;;;;;;;7.75;1.55;;;22.00;96.20;;;;;;4940503;28;20065;-91
2022/06/12 13:06:17;;;;;;;9.20;1.27;;;22.10;96.10;;;;;;4955126;28;20141;-90
2022/06/12 13:09:24;;;;;;;8.32;1.42;;;22.20;95.00;;;;;;4955760;28;20055;-90
2022/06/12 13:12:23;;;;;;;6.38;1.45;;;22.20;96.10;;;;;;4956932;28;20047;-90
2022/06/12 13:15:19;;;;;;;6.30;1.27;;;22.40;97.80;;;;;;4955650;28;20061;-90
2022/06/12 13:18:24;;;;;;;11.48;2.05;;;22.30;95.20;;;;;;4955033;28;20159;-90
2022/06/12 13:21:11;;;;;;;7.30;1.98;;;22.00;94.70;;;;;;4955904;28;20064;-90
2022/06/12 13:24:30;;;;;;;13.30;1.80;;;21.70;96.20;;;;;;4959529;28;20129;-91
2022/06/12 13:27:31;;;;;;;7.95;1.70;;;21.50;97.50;;;;;;4972163;28;20057;-90
2022/06/12 13:30:52;;;;;;;8.13;1.67;;;21.60;99.40;;;;;;4970745;28;20050;-90
2022/06/12 13:33:55;;;;;;;8.10;1.83;;;21.80;99.80;;;;;;4955217;28;20062;-89
2022/06/12 13:36:49;;;;;;;7.13;1.60;;;21.60;98.90;;;;;;4942885;28;20058;-91
2022/06/12 13:40:27;;;;;;;9.32;1.85;;;21.70;99.70;;;;;;4956040;28;20042;-90
2022/06/12 13:43:28;;;;;;;9.10;1.80;;;21.70;99.80;;;;;;4950583;28;20097;-91
2022/06/12 13:46:51;;;;;;;8.65;1.67;;;21.80;99.00;;;;;;4954688;28;20051;-90
2022/06/12 13:50:12;;;;;;;9.35;1.50;;;21.60;99.10;;;;;;4943570;28;20193;-91
2022/06/12 13:53:52;;;;;;;7.05;1.48;;;21.80;97.90;;;;;;4970503;28;20054;-92
2022/06/12 13:56:25;;;;;;;7.63;1.50;;;21.90;98.00;;;;;;4972148;28;20058;-91
2022/06/12 13:58:54;;;;;;;12.00;2.10;;;21.90;97.40;;;;;;4983270;28;20520;-91
2022/06/12 14:01:31;;;;;;;10.45;2.13;;;21.90;97.50;;;;;;4984607;28;20038;-89
2022/06/12 14:04:00;;;;;;;9.18;1.70;;;21.90;98.50;;;;;;4991417;28;20049;-88
2022/06/12 14:06:33;;;;;;;12.57;2.75;;;22.00;99.30;;;;;;4983542;28;20048;-90
2022/06/12 14:09:08;;;;;;;12.30;2.75;;;22.20;99.90;;;;;;4984639;28;20050;-89
2022/06/12 14:11:36;;;;;;;12.43;2.42;;;22.20;99.90;;;;;;4983658;28;20050;-92